PWSweather.com
Personal Weather Stations
Station Observations

OlomoucCZ

Lat: 49.5936202181, Lon: 17.2276005149

Elevation: 752

Station Type: Davis Vantage Pro 2 Activ

http://infopocasi-olomouc.cz

High Low Average
Temperature 77.9°F25.5°C 65.0°F18.3°C 69.9°F21.1°C
Dew Point 67.8°F19.9°C 60.3°F15.7°C 64.5°F18.1°C
Winds 10.4 mph 16.7 kmh Calm Calm 3.0 mph SSE4.8 kmh SSE
Wind Gusts 11.5 mph18.5 kmh -- 5.0 mph8.0 kmh
Humidity 98% 55% 84%
Pressure 29.84 in1010.5 mb 29.76 in1007.8 mb -
Precipitation 0.06 in1.5 mm - -
Hour Temp Dew Point Humidity Winds Wind Gusts Pressure Precip Precip Rate Daily Precip Total
12:00 AM 69.8°F21.0°C 61.9°F16.6°C 76% 3.5 mph ESE5.6 kmh ESE 3.5 mph5.6 kmh 29.78 in1008.5 mb - 0.00 in0.0 mm 0.00 in0.0 mm
12:30 AM 69.3°F20.7°C 62.1°F16.7°C 78% 2.3 mph SE3.7 kmh SE 3.5 mph5.6 kmh 29.77 in1008.1 mb - 0.00 in0.0 mm 0.00 in0.0 mm
01:00 AM 68.6°F20.3°C 62.2°F16.8°C 80% 2.3 mph SE3.7 kmh SE 3.5 mph5.6 kmh 29.77 in1008.1 mb - 0.00 in0.0 mm 0.00 in0.0 mm
01:30 AM 67.8°F19.9°C 62.5°F16.9°C 83% 3.5 mph SE5.6 kmh SE 3.5 mph5.6 kmh 29.77 in1008.1 mb - 0.00 in0.0 mm 0.00 in0.0 mm
02:00 AM 68.0°F20.0°C 63.0°F17.2°C 84% 1.2 mph SE1.9 kmh SE 2.3 mph3.7 kmh 29.77 in1008.1 mb - 0.00 in0.0 mm 0.00 in0.0 mm
02:30 AM 67.9°F19.9°C 62.9°F17.2°C 84% 3.5 mph SE5.6 kmh SE 5.8 mph9.3 kmh 29.77 in1008.1 mb - 0.00 in0.0 mm 0.00 in0.0 mm
03:00 AM 67.6°F19.8°C 63.3°F17.4°C 86% 4.6 mph ESE7.4 kmh ESE 5.8 mph9.3 kmh 29.77 in1008.1 mb - 0.00 in0.0 mm 0.00 in0.0 mm
03:30 AM 66.9°F19.4°C 63.6°F17.6°C 89% Calm Calm 2.3 mph3.7 kmh 29.76 in1007.8 mb - 0.00 in0.0 mm 0.00 in0.0 mm
04:00 AM 66.8°F19.3°C 63.8°F17.7°C 90% 4.6 mph E7.4 kmh E 6.9 mph11.1 kmh 29.76 in1007.8 mb - 0.00 in0.0 mm 0.00 in0.0 mm
04:30 AM 67.0°F19.4°C 63.6°F17.6°C 89% 1.2 mph ESE1.9 kmh ESE 2.3 mph3.7 kmh 29.77 in1008.1 mb - 0.00 in0.0 mm 0.00 in0.0 mm
05:00 AM 67.0°F19.4°C 63.6°F17.6°C 89% 2.3 mph SE3.7 kmh SE 3.5 mph5.6 kmh 29.77 in1008.1 mb - 0.00 in0.0 mm 0.00 in0.0 mm
05:30 AM 66.7°F19.3°C 63.7°F17.6°C 90% 6.9 mph SE11.1 kmh SE 8.1 mph13.0 kmh 29.78 in1008.5 mb - 0.00 in0.0 mm 0.00 in0.0 mm
06:00 AM 66.3°F19.1°C 63.6°F17.6°C 91% 3.5 mph SE5.6 kmh SE 3.5 mph5.6 kmh 29.77 in1008.1 mb - 0.00 in0.0 mm 0.00 in0.0 mm
06:30 AM 67.0°F19.4°C 64.0°F17.8°C 90% Calm Calm 2.3 mph3.7 kmh 29.77 in1008.1 mb - 0.00 in0.0 mm 0.00 in0.0 mm
07:00 AM 67.4°F19.7°C 63.7°F17.6°C 88% 2.3 mph ESE3.7 kmh ESE 3.5 mph5.6 kmh 29.77 in1008.1 mb - 0.00 in0.0 mm 0.00 in0.0 mm
07:30 AM 68.7°F20.4°C 64.3°F17.9°C 86% Calm Calm 1.2 mph1.9 kmh 29.77 in1008.1 mb - 0.00 in0.0 mm 0.00 in0.0 mm
08:00 AM 69.6°F20.9°C 64.2°F17.9°C 83% 2.3 mph ESE3.7 kmh ESE 2.3 mph3.7 kmh 29.77 in1008.1 mb - 0.00 in0.0 mm 0.00 in0.0 mm
08:30 AM 69.9°F21.1°C 64.5°F18.1°C 83% 3.5 mph SE5.6 kmh SE 4.6 mph7.4 kmh 29.78 in1008.5 mb - 0.00 in0.0 mm 0.00 in0.0 mm
09:00 AM 70.9°F21.6°C 64.4°F18.0°C 80% 2.3 mph SE3.7 kmh SE 3.5 mph5.6 kmh 29.77 in1008.1 mb - 0.00 in0.0 mm 0.00 in0.0 mm
09:30 AM 71.6°F22.0°C 64.0°F17.8°C 77% 2.3 mph SE3.7 kmh SE 3.5 mph5.6 kmh 29.77 in1008.1 mb - 0.00 in0.0 mm 0.00 in0.0 mm
10:00 AM 71.3°F21.8°C 64.4°F18.0°C 79% 2.3 mph SW3.7 kmh SW 3.5 mph5.6 kmh 29.77 in1008.1 mb - 0.00 in0.0 mm 0.00 in0.0 mm
10:30 AM 71.8°F22.1°C 65.0°F18.3°C 79% 3.5 mph SW5.6 kmh SW 3.5 mph5.6 kmh 29.78 in1008.5 mb - 0.00 in0.0 mm 0.00 in0.0 mm
11:00 AM 73.2°F22.9°C 65.2°F18.4°C 76% 1.2 mph SW1.9 kmh SW 3.5 mph5.6 kmh 29.78 in1008.5 mb - 0.00 in0.0 mm 0.00 in0.0 mm
11:30 AM 74.2°F23.4°C 65.0°F18.3°C 73% 2.3 mph SE3.7 kmh SE 5.8 mph9.3 kmh 29.78 in1008.5 mb - 0.00 in0.0 mm 0.00 in0.0 mm
12:00 PM 75.0°F23.9°C 64.9°F18.3°C 71% 3.5 mph WSW5.6 kmh WSW 5.8 mph9.3 kmh 29.77 in1008.1 mb - 0.00 in0.0 mm 0.00 in0.0 mm
12:30 PM 74.8°F23.8°C 64.8°F18.2°C 71% 1.2 mph SW1.9 kmh SW 2.3 mph3.7 kmh 29.77 in1008.1 mb - 0.00 in0.0 mm 0.00 in0.0 mm
01:00 PM 75.7°F24.3°C 64.4°F18.0°C 68% 2.3 mph NNW3.7 kmh NNW 3.5 mph5.6 kmh 29.76 in1007.8 mb - 0.00 in0.0 mm 0.00 in0.0 mm
01:30 PM 77.0°F25.0°C 63.0°F17.2°C 62% 3.5 mph N5.6 kmh N 3.5 mph5.6 kmh 29.76 in1007.8 mb - 0.00 in0.0 mm 0.00 in0.0 mm
02:00 PM 77.8°F25.4°C 60.3°F15.7°C 55% 5.8 mph NE9.3 kmh NE 10.4 mph16.7 kmh 29.76 in1007.8 mb - 0.00 in0.0 mm 0.00 in0.0 mm
02:30 PM 77.9°F25.5°C 60.4°F15.8°C 55% 3.5 mph N5.6 kmh N 3.5 mph5.6 kmh 29.76 in1007.8 mb - 0.00 in0.0 mm 0.00 in0.0 mm
03:00 PM 76.4°F24.7°C 65.0°F18.3°C 68% 10.4 mph SE16.7 kmh SE 11.5 mph18.5 kmh 29.77 in1008.1 mb - 0.00 in0.0 mm 0.00 in0.0 mm
03:30 PM 74.5°F23.6°C 66.4°F19.1°C 76% 3.5 mph SE5.6 kmh SE 3.5 mph5.6 kmh 29.76 in1007.8 mb - 0.00 in0.0 mm 0.00 in0.0 mm
04:00 PM 72.4°F22.4°C 67.3°F19.6°C 84% 8.1 mph SE13.0 kmh SE 10.4 mph16.7 kmh 29.78 in1008.5 mb - 0.00 in0.0 mm 0.00 in0.0 mm
04:30 PM 70.3°F21.3°C 67.5°F19.7°C 91% Calm Calm 1.2 mph1.9 kmh 29.79 in1008.8 mb - 0.01 in0.3 mm 0.01 in0.3 mm
05:00 PM 70.6°F21.4°C 67.2°F19.6°C 89% 4.6 mph ESE7.4 kmh ESE 6.9 mph11.1 kmh 29.79 in1008.8 mb - 0.02 in0.5 mm 0.02 in0.5 mm
05:30 PM 70.5°F21.4°C 67.4°F19.7°C 90% 3.5 mph SE5.6 kmh SE 4.6 mph7.4 kmh 29.79 in1008.8 mb - 0.01 in0.3 mm 0.02 in0.5 mm
06:00 PM 70.3°F21.3°C 67.5°F19.7°C 91% 8.1 mph SE13.0 kmh SE 9.2 mph14.8 kmh 29.80 in1009.1 mb - 0.01 in0.3 mm 0.03 in0.8 mm
06:30 PM 69.9°F21.1°C 67.8°F19.9°C 93% 5.8 mph SE9.3 kmh SE 6.9 mph11.1 kmh 29.80 in1009.1 mb - 0.01 in0.3 mm 0.03 in0.8 mm
07:00 PM 68.8°F20.4°C 66.4°F19.1°C 92% 5.8 mph SSE9.3 kmh SSE 8.1 mph13.0 kmh 29.80 in1009.1 mb - 0.00 in0.0 mm 0.03 in0.8 mm
07:30 PM 67.6°F19.8°C 65.8°F18.8°C 94% 5.8 mph SSW9.3 kmh SSW 8.1 mph13.0 kmh 29.81 in1009.5 mb - 0.00 in0.0 mm 0.03 in0.8 mm
08:00 PM 67.3°F19.6°C 65.8°F18.8°C 95% 4.6 mph SW7.4 kmh SW 5.8 mph9.3 kmh 29.82 in1009.8 mb - 0.01 in0.3 mm 0.04 in1.0 mm
08:30 PM 66.7°F19.3°C 65.6°F18.7°C 96% 1.2 mph SW1.9 kmh SW 3.5 mph5.6 kmh 29.83 in1010.2 mb - 0.02 in0.5 mm 0.05 in1.3 mm
09:00 PM 66.1°F18.9°C 64.9°F18.3°C 96% 3.5 mph NW5.6 kmh NW 4.6 mph7.4 kmh 29.83 in1010.2 mb - 0.00 in0.0 mm 0.05 in1.3 mm
09:30 PM 66.4°F19.1°C 65.2°F18.4°C 96% 3.5 mph E5.6 kmh E 5.8 mph9.3 kmh 29.84 in1010.5 mb - 0.00 in0.0 mm 0.05 in1.3 mm
10:00 PM 66.5°F19.2°C 65.6°F18.7°C 97% Calm Calm -- 29.83 in1010.2 mb - 0.00 in0.0 mm 0.05 in1.3 mm
10:30 PM 66.5°F19.2°C 65.9°F18.8°C 98% 2.3 mph SSE3.7 kmh SSE 2.3 mph3.7 kmh 29.84 in1010.5 mb - 0.01 in0.3 mm 0.06 in1.5 mm
11:00 PM 65.9°F18.8°C 65.3°F18.5°C 98% 3.5 mph WNW5.6 kmh WNW 3.5 mph5.6 kmh 29.84 in1010.5 mb - 0.02 in0.5 mm 0.12 in3.0 mm
11:30 PM 65.0°F18.3°C 64.4°F18.0°C 98% 1.2 mph WSW1.9 kmh WSW 4.6 mph7.4 kmh 29.84 in1010.5 mb - 0.04 in1.0 mm 0.03 in0.8 mm